Latest Weather Observations for Low Head

IDT60801

Issued at 11:05 am EDT Tuesday 25 November 2014 (issued every 30 minutes, with the page automatically refreshed every 10 minutes)

About weather observations | Map of weather stations | Latest weather observations for TAS | Other Formats
Station Details ID: 091293 Name: LOW HEAD Lat: -41.05 Lon: 146.79 Height: 3.0 m
Data from the previous 72 hours. | See also: Recent months at Low Head
Date/Time
EDT
Temp
°C
App
Temp
°C
Dew
Point
Rel
Hum
%
Delta-T
°C
Wind Press
QNH
hPa
Press
MSL
hPa
Rain
since 9 am
mm
Dir
 
Spd
km/h
Gust
km/h
Spd
kts
Gust
kts
25/11:00am 15.3 6.4 6.7 56 4.2 W 43 50 23 27 1009.8 - 0.0
25/10:30am 15.0 6.1 6.8 58 4.0 W 43 52 23 28 1009.7 - 0.0
25/10:00am 14.7 5.2 6.9 59 3.8 W 46 56 25 30 1009.3 - 0.0
25/09:30am 14.1 4.8 7.4 64 3.3 W 46 57 25 31 1009.1 - 0.0
25/09:00am 14.2 4.5 7.7 65 3.2 W 48 56 26 30 1008.9 1008.9 3.8
25/08:30am 13.8 4.4 7.3 65 3.2 W 46 56 25 30 1008.5 - 3.8
25/08:00am 13.6 4.9 7.7 67 2.9 W 43 50 23 27 1008.1 - 3.8
25/07:30am 13.3 4.4 7.6 68 2.8 W 44 54 24 29 1007.7 - 3.8
25/07:00am 12.9 3.7 7.8 71 2.5 W 46 56 25 30 1007.4 - 3.8
25/06:30am 12.9 3.4 8.3 73 2.3 W 48 59 26 32 1006.9 - 3.8
25/06:00am 12.5 3.3 8.0 74 2.2 W 46 56 25 30 1006.5 1006.5 3.8
25/05:30am 12.3 3.8 8.5 77 1.9 W 43 52 23 28 1006.2 - 3.8
25/05:00am 12.3 3.8 8.5 77 1.9 W 43 50 23 27 1005.9 - 3.8
25/04:30am 12.4 3.9 8.6 77 1.9 W 43 50 23 27 1005.8 - 3.8
25/04:00am 12.4 2.9 8.4 76 2.0 W 48 56 26 30 1005.7 - 3.8
25/03:30am 12.4 3.3 8.6 77 1.9 WNW 46 56 25 30 1005.6 - 3.8
25/03:00am 12.8 3.0 8.6 75 2.1 W 50 61 27 33 1005.5 1005.6 3.8
25/02:30am 12.8 2.5 8.2 73 2.3 W 52 61 28 33 1005.7 - 3.8
25/02:00am 12.7 2.7 8.0 73 2.3 W 50 57 27 31 1005.9 - 3.8
25/01:30am 12.8 3.0 7.2 69 2.7 W 48 56 26 30 1006.3 - 3.8
25/01:00am 12.8 3.0 7.0 68 2.8 W 48 56 26 30 1006.4 - 3.8
25/12:30am 12.8 3.5 7.5 70 2.6 W 46 56 25 30 1006.7 - 3.8
25/12:00am 12.9 4.1 7.1 68 2.8 W 43 50 23 27 1006.7 1006.7 3.8
 
Date/Time
EDT
Temp
°C
App
Temp
°C
Dew
Point
Rel
Hum
%
Delta-T
°C
Wind Press
QNH
hPa
Press
MSL
hPa
Rain
since 9 am
mm
Dir
 
Spd
km/h
Gust
km/h
Spd
kts
Gust
kts
24/11:30pm 13.1 4.8 7.6 69 2.7 W 41 44 22 24 1006.8 - 3.8
24/11:00pm 13.3 5.3 7.6 68 2.8 W 39 44 21 24 1006.8 - 3.8
24/10:30pm 13.5 4.3 8.1 70 2.7 W 46 54 25 29 1006.7 - 3.8
24/10:00pm 13.6 5.6 7.5 66 3.0 W 39 46 21 25 1006.4 - 3.8
24/09:30pm 13.6 5.5 7.0 64 3.2 WSW 39 46 21 25 1005.6 - 3.8
24/09:00pm 14.0 3.8 6.8 62 3.5 W 50 63 27 34 1004.8 1004.7 3.8
24/08:55pm 13.8 4.7 7.0 63 3.3 W 44 63 24 34 1004.6 - 3.8
24/08:30pm 14.0 8.6 12.2 89 1.0 WNW 32 39 17 21 1004.5 - 3.8
24/08:00pm 13.8 10.3 12.3 91 0.8 W 22 26 12 14 1004.4 - 3.8
24/07:30pm 13.6 11.3 11.9 89 0.9 W 15 19 8 10 1003.9 - 3.8
24/07:00pm 13.8 9.5 12.1 89 0.9 WSW 26 30 14 16 1003.9 - 3.8
24/06:30pm 13.7 10.8 12.4 92 0.7 SW 19 22 10 12 1003.3 - 3.8
24/06:00pm 13.3 9.9 12.6 95 0.4 SSW 22 24 12 13 1003.1 1003.2 3.8
24/05:30pm 13.3 12.8 12.6 95 0.4 SSE 7 11 4 6 1003.1 - 3.4
24/05:00pm 13.4 11.3 12.5 94 0.5 ENE 15 19 8 10 1003.5 - 3.0
24/04:30pm 13.4 10.5 12.3 93 0.6 ENE 19 20 10 11 1003.8 - 2.6
24/04:00pm 13.9 10.6 11.7 86 1.2 ENE 20 24 11 13 1004.4 - 2.2
24/03:30pm 13.9 10.6 11.5 85 1.3 ENE 20 24 11 13 1004.8 - 2.2
24/03:00pm 14.1 10.5 11.7 85 1.3 NE 22 26 12 14 1005.0 1005.0 2.2
24/02:30pm 14.2 11.3 12.4 89 1.0 ENE 19 20 10 11 1005.0 - 2.2
24/02:00pm 13.9 11.2 11.7 86 1.2 ENE 17 20 9 11 1006.7 - 2.2
24/01:30pm 13.9 10.7 11.3 84 1.4 ENE 19 20 10 11 1007.1 - 1.8
24/01:00pm 14.3 12.2 12.3 88 1.1 NE 15 17 8 9 1007.9 - 1.4
24/12:30pm 14.3 13.0 12.5 89 1.0 N 11 15 6 8 1008.4 - 1.4
24/12:00pm 14.4 12.8 11.6 83 1.5 NE 11 15 6 8 1008.2 1008.2 1.2
24/11:30am 14.8 13.9 12.6 87 1.2 ENE 9 11 5 6 1008.7 - 1.2
24/11:00am 14.6 14.0 11.8 83 1.5 ESE 6 9 3 5 1009.5 - 1.2
24/10:30am 14.2 13.1 12.0 87 1.2 ESE 9 11 5 6 1009.5 - 1.2
24/10:00am 14.9 14.4 12.5 85 1.3 SE 7 15 4 8 1010.5 - 0.4
24/09:30am 14.8 13.0 12.2 84 1.4 SSE 13 17 7 9 1010.1 - 0.0
24/09:00am 15.0 13.9 11.9 82 1.7 S 9 15 5 8 1010.3 1010.4 0.2
24/08:30am 14.8 14.9 12.8 88 1.1 ESE 4 6 2 3 1010.4 - 0.2
24/08:00am 14.4 13.7 12.0 85 1.3 WSW 7 9 4 5 1011.0 - 0.0
24/07:30am 14.4 13.9 12.0 85 1.3 SW 6 7 3 4 1010.4 - 0.0
24/07:00am 14.3 15.0 12.1 87 1.2 CALM 0 0 0 0 1010.2 - 0.0
24/06:30am 14.2 13.6 12.4 89 1.0 W 7 9 4 5 1010.2 - 0.0
24/06:00am 14.4 12.7 12.6 89 1.0 W 13 15 7 8 1010.5 1010.5 0.0
24/05:30am 14.4 12.4 12.8 90 0.9 WSW 15 19 8 10 1010.4 - 0.0
24/05:00am 14.5 11.5 12.7 89 1.0 W 20 24 11 13 1011.1 - 0.0
24/04:30am 14.4 11.0 12.6 89 1.0 NW 22 30 12 16 1011.0 - 0.0
24/04:00am 14.7 11.7 12.5 87 1.2 NW 20 24 11 13 1011.2 - 0.0
24/03:30am 14.5 12.3 12.1 85 1.3 WNW 15 17 8 9 1011.2 - 0.0
24/03:00am 14.2 12.3 11.8 85 1.3 WNW 13 15 7 8 1011.2 1011.2 0.0
24/02:30am 14.3 13.5 11.7 84 1.4 NNW 7 13 4 7 1011.4 - 0.0
24/02:00am 14.3 13.0 11.1 81 1.7 WSW 9 11 5 6 1010.9 - 0.0
24/01:30am 14.8 13.2 11.4 80 1.8 WSW 11 13 6 7 1011.6 - 0.0
24/01:00am 15.0 12.6 11.3 78 2.0 W 15 17 8 9 1011.9 - 0.0
24/12:30am 15.1 12.4 11.8 81 1.8 W 17 19 9 10 1012.2 - 0.0
24/12:00am 15.3 11.9 11.2 76 2.2 W 20 24 11 13 1012.2 1012.2 0.0
 
Date/Time
EDT
Temp
°C
App
Temp
°C
Dew
Point
Rel
Hum
%
Delta-T
°C
Wind Press
QNH
hPa
Press
MSL
hPa
Rain
since 9 am
mm
Dir
 
Spd
km/h
Gust
km/h
Spd
kts
Gust
kts
23/11:30pm 15.5 11.7 11.2 75 2.3 W 22 26 12 14 1011.8 - 0.0
23/11:00pm 15.8 10.7 10.7 71 2.7 W 28 32 15 17 1011.8 - 0.0
23/10:30pm 15.7 10.8 11.2 74 2.4 W 28 32 15 17 1011.9 - 0.0
23/10:00pm 16.0 9.7 10.9 72 2.7 W 35 41 19 22 1011.7 - 0.0
23/09:30pm 15.9 9.2 11.0 72 2.6 W 37 44 20 24 1011.4 - 0.0
23/09:00pm 16.0 8.8 10.7 71 2.8 WNW 39 48 21 26 1011.3 1011.3 0.0
23/08:30pm 16.2 8.1 10.1 67 3.2 WNW 43 50 23 27 1011.1 - 0.0
23/08:00pm 16.3 8.0 10.0 66 3.3 WNW 44 52 24 28 1010.8 - 0.0
23/07:30pm 16.4 8.7 10.1 66 3.3 WNW 41 48 22 26 1010.6 - 0.0
23/07:00pm 16.6 8.8 9.9 64 3.5 NW 41 46 22 25 1010.3 - 0.0
23/06:30pm 16.7 9.4 10.3 66 3.4 NW 39 46 21 25 1010.2 - 0.0
23/06:00pm 17.0 10.6 10.6 66 3.4 NW 35 43 19 23 1010.0 1010.0 0.0
23/05:30pm 17.2 11.0 11.3 68 3.2 NW 35 41 19 22 1010.1 - 0.0
23/05:00pm 17.1 10.8 11.2 68 3.2 NW 35 43 19 23 1010.2 - 0.0
23/04:30pm 17.1 11.0 10.5 65 3.5 NW 33 41 18 22 1010.1 - 0.0
23/04:00pm 17.4 11.5 10.5 64 3.7 NW 32 37 17 20 1009.6 - 0.0
23/03:30pm 17.9 13.0 11.3 65 3.6 NW 28 33 15 18 1009.6 - 0.0
23/03:00pm 17.7 13.0 10.8 64 3.7 NW 26 30 14 16 1009.9 1009.9 0.0
23/02:30pm 18.3 13.7 11.1 63 3.9 WNW 26 32 14 17 1009.8 - 0.0
23/02:00pm 17.9 12.7 11.5 66 3.5 WNW 30 33 16 18 1010.0 - 0.0
23/01:30pm 17.7 12.3 10.8 64 3.7 NW 30 33 16 18 1010.4 - 0.0
23/01:00pm 17.5 11.8 11.0 65 3.5 NW 32 37 17 20 1010.4 - 0.0
23/12:30pm 16.9 10.8 10.5 66 3.4 NW 33 39 18 21 1010.5 - 0.0
23/12:00pm 17.0 10.3 11.1 68 3.2 NW 37 43 20 23 1010.5 1010.5 0.0
23/11:30am 16.7 10.6 10.5 67 3.3 WNW 33 41 18 22 1010.4 - 0.0
23/11:00am 16.5 10.4 10.3 67 3.3 NW 33 43 18 23 1010.6 - 0.0
23/10:30am 16.0 10.0 10.1 68 3.1 WNW 32 37 17 20 1010.4 - 0.0
23/10:00am 15.9 9.8 10.4 70 2.9 WNW 33 39 18 21 1009.9 - 0.0
23/09:30am 15.4 9.2 10.1 70 2.8 W 33 37 18 20 1009.7 - 0.0
23/09:00am 15.0 8.8 10.0 72 2.6 W 33 39 18 21 1009.8 1009.7 1.2
23/08:30am 14.9 8.8 10.5 75 2.3 W 33 39 18 21 1009.4 - 1.2
23/08:00am 14.9 8.8 10.5 75 2.3 W 33 39 18 21 1009.0 - 1.2
23/07:30am 14.6 8.4 10.2 75 2.3 W 33 39 18 21 1008.5 - 1.2
23/07:00am 14.5 8.7 10.7 78 2.0 W 32 39 17 21 1007.9 - 1.2
23/06:30am 14.6 9.3 11.4 81 1.7 W 30 35 16 19 1007.3 - 1.2
23/06:00am 14.4 8.4 12.0 85 1.3 W 35 41 19 22 1006.5 1006.5 1.2
23/05:30am 14.6 8.3 12.4 87 1.2 W 37 46 20 25 1006.0 - 1.2
23/05:00am 14.6 9.3 12.4 87 1.2 W 32 37 17 20 1005.8 - 1.2
23/04:30am 14.5 9.7 12.9 90 0.9 WNW 30 33 16 18 1005.5 - 1.2
23/04:00am 14.7 9.8 12.7 88 1.1 W 30 35 16 19 1005.5 - 1.2
23/03:30am 14.6 11.4 13.0 90 0.9 W 22 28 12 15 1005.3 - 1.2
23/03:00am 14.2 10.9 12.9 92 0.7 W 22 30 12 16 1005.3 1005.3 1.0
23/02:30am 14.0 13.6 12.9 93 0.6 SW 7 9 4 5 1005.1 - 1.0
23/02:00am 14.0 13.1 12.7 92 0.7 S 9 9 5 5 1004.6 - 1.0
23/01:30am 14.1 13.3 13.0 93 0.6 S 9 11 5 6 1004.8 - 1.0
23/01:00am 14.3 13.2 13.0 92 0.7 S 11 15 6 8 1004.9 - 1.0
23/12:30am 14.7 14.4 13.3 91 0.8 ESE 7 13 4 7 1005.0 - 0.8
23/12:00am 14.6 12.8 13.2 91 0.8 SSE 15 17 8 9 1004.7 1004.7 0.2
 
Date/Time
EDT
Temp
°C
App
Temp
°C
Dew
Point
Rel
Hum
%
Delta-T
°C
Wind Press
QNH
hPa
Press
MSL
hPa
Rain
since 9 am
mm
Dir
 
Spd
km/h
Gust
km/h
Spd
kts
Gust
kts
22/11:30pm 14.7 13.1 12.7 88 1.1 SSE 13 17 7 9 1005.0 - 0.0
22/11:00pm 15.1 14.2 12.7 85 1.3 ESE 9 15 5 8 1005.9 - 0.0
22/10:30pm 14.8 13.9 12.6 87 1.2 SSE 9 11 5 6 1006.1 - 0.0
22/10:00pm 15.2 14.1 13.0 87 1.2 ENE 11 13 6 7 1006.2 - 0.0
22/09:30pm 15.0 13.6 12.3 84 1.5 SE 11 13 6 7 1006.0 - 0.0
22/09:00pm 15.2 14.3 12.7 85 1.4 E 9 11 5 6 1005.8 1005.8 0.0
22/08:30pm 15.8 15.3 12.7 82 1.7 E 7 11 4 6 1006.0 - 0.0
22/08:00pm 16.0 13.7 13.1 83 1.6 ENE 17 17 9 9 1005.8 - 0.0
22/07:30pm 15.9 13.2 13.0 83 1.6 ENE 19 20 10 11 1005.9 - 0.0
22/07:00pm 16.1 13.4 12.9 81 1.8 ENE 19 20 10 11 1006.1 - 0.0
22/06:30pm 16.0 13.7 12.9 82 1.7 NE 17 20 9 11 1006.6 - 0.0
22/06:00pm 16.3 13.3 12.7 79 2.0 ENE 20 20 11 11 1006.5 1006.5 0.0
22/05:30pm 16.6 13.8 12.6 77 2.2 ENE 19 22 10 12 1006.3 - 0.0
22/05:00pm 16.3 12.8 12.3 77 2.2 ENE 22 26 12 14 1006.6 - 0.0
22/04:30pm 16.3 12.9 12.5 78 2.1 ENE 22 26 12 14 1006.9 - 0.0
22/04:00pm 15.6 13.2 12.5 82 1.7 ENE 17 20 9 11 1007.6 - 0.0
22/03:30pm 15.7 13.3 12.8 83 1.6 ENE 17 19 9 10 1008.1 - 0.0
22/03:00pm 16.3 14.6 12.5 78 2.1 NE 13 17 7 9 1008.6 1008.6 0.0
22/02:30pm 15.7 12.8 12.4 81 1.8 NE 19 20 10 11 1008.3 - 0.0
22/02:00pm 15.3 12.6 12.8 85 1.4 ENE 19 22 10 12 1008.7 - 0.0
22/01:30pm 15.3 12.6 12.8 85 1.4 NE 19 20 10 11 1009.6 - 0.0
22/01:00pm 15.3 11.5 12.4 83 1.6 NE 24 26 13 14 1009.3 - 0.0
22/12:30pm 15.5 11.8 12.6 83 1.6 ENE 24 26 13 14 1009.4 - 0.0
22/12:00pm 15.5 12.5 12.4 82 1.7 ENE 20 24 11 13 1009.9 1009.9 0.0
22/11:30am 15.4 11.9 12.3 82 1.7 ENE 22 24 12 13 1010.2 - 0.0

Other Formats:

Comma delimited format used in spreadsheet applications
http://www.bom.gov.au/fwo/IDT60801/IDT60801.95964.axf

JavaScript Object Notation format (JSON) in row-major order
http://www.bom.gov.au/fwo/IDT60801/IDT60801.95964.json